sensor_id;sensor_type;location;lat;lon;timestamp;pressure;altitude;pressure_sealevel;temperature;humidity
21240;BME280;10778;48.962;9.018;2023-10-08T00:00:25;99908.13;;;11.52;98.92
21240;BME280;10778;48.962;9.018;2023-10-08T00:03:13;99902.81;;;11.63;96.65
21240;BME280;10778;48.962;9.018;2023-10-08T00:05:41;99904.50;;;11.64;96.21
21240;BME280;10778;48.962;9.018;2023-10-08T00:08:07;99906.75;;;11.69;96.58
21240;BME280;10778;48.962;9.018;2023-10-08T00:10:36;99912.63;;;11.73;95.11
21240;BME280;10778;48.962;9.018;2023-10-08T00:13:04;99901.34;;;11.71;97.07
21240;BME280;10778;48.962;9.018;2023-10-08T00:15:34;99898.25;;;11.65;96.88
21240;BME280;10778;48.962;9.018;2023-10-08T00:18:05;99898.94;;;11.79;93.71
21240;BME280;10778;48.962;9.018;2023-10-08T00:20:32;99888.69;;;12.18;86.48
21240;BME280;10778;48.962;9.018;2023-10-08T00:23:09;99880.84;;;12.28;85.78
21240;BME280;10778;48.962;9.018;2023-10-08T00:25:35;99880.06;;;12.59;82.52
21240;BME280;10778;48.962;9.018;2023-10-08T00:28:09;99873.56;;;12.73;81.62
21240;BME280;10778;48.962;9.018;2023-10-08T00:30:40;99872.03;;;12.70;81.12
21240;BME280;10778;48.962;9.018;2023-10-08T00:33:10;99866.81;;;12.90;79.91
21240;BME280;10778;48.962;9.018;2023-10-08T00:35:41;99867.25;;;12.95;79.20
21240;BME280;10778;48.962;9.018;2023-10-08T00:38:08;99871.31;;;13.09;77.99
21240;BME280;10778;48.962;9.018;2023-10-08T00:40:47;99866.94;;;13.39;76.16
21240;BME280;10778;48.962;9.018;2023-10-08T00:43:33;99863.59;;;13.37;75.82
21240;BME280;10778;48.962;9.018;2023-10-08T00:46:03;99863.34;;;13.50;75.46
21240;BME280;10778;48.962;9.018;2023-10-08T00:48:53;99864.69;;;13.34;75.10
21240;BME280;10778;48.962;9.018;2023-10-08T00:51:23;99862.88;;;13.25;76.68
21240;BME280;10778;48.962;9.018;2023-10-08T00:53:54;99859.00;;;13.39;75.31
21240;BME280;10778;48.962;9.018;2023-10-08T00:56:31;99850.66;;;13.44;74.44
21240;BME280;10778;48.962;9.018;2023-10-08T00:59:22;99851.41;;;13.46;74.41
21240;BME280;10778;48.962;9.018;2023-10-08T01:02:04;99857.50;;;13.46;73.82
21240;BME280;10778;48.962;9.018;2023-10-08T01:04:53;99851.63;;;13.43;74.36
21240;BME280;10778;48.962;9.018;2023-10-08T01:07:42;99845.53;;;13.52;73.36
21240;BME280;10778;48.962;9.018;2023-10-08T01:10:27;99847.88;;;13.35;73.90
21240;BME280;10778;48.962;9.018;2023-10-08T01:13:03;99851.25;;;13.47;73.09
21240;BME280;10778;48.962;9.018;2023-10-08T01:16:02;99852.59;;;13.42;73.22
21240;BME280;10778;48.962;9.018;2023-10-08T01:18:46;99868.00;;;13.17;78.40
21240;BME280;10778;48.962;9.018;2023-10-08T01:21:20;99865.28;;;12.87;80.78
21240;BME280;10778;48.962;9.018;2023-10-08T01:24:22;99857.22;;;12.58;86.58
21240;BME280;10778;48.962;9.018;2023-10-08T01:27:02;99863.50;;;12.26;90.71
21240;BME280;10778;48.962;9.018;2023-10-08T01:29:40;99853.91;;;12.03;92.76
21240;BME280;10778;48.962;9.018;2023-10-08T01:32:10;99868.06;;;11.91;93.33
21240;BME280;10778;48.962;9.018;2023-10-08T01:34:59;99863.47;;;11.72;95.56
21240;BME280;10778;48.962;9.018;2023-10-08T01:37:34;99877.22;;;11.54;98.19
21240;BME280;10778;48.962;9.018;2023-10-08T01:40:10;99869.59;;;11.40;100.00
21240;BME280;10778;48.962;9.018;2023-10-08T01:42:50;99876.56;;;11.29;100.00
21240;BME280;10778;48.962;9.018;2023-10-08T01:45:19;99879.09;;;11.19;100.00
21240;BME280;10778;48.962;9.018;2023-10-08T01:47:59;99877.91;;;11.12;100.00
21240;BME280;10778;48.962;9.018;2023-10-08T01:50:38;99876.53;;;10.97;100.00
21240;BME280;10778;48.962;9.018;2023-10-08T01:53:08;99872.78;;;10.99;100.00
21240;BME280;10778;48.962;9.018;2023-10-08T01:55:49;99874.72;;;10.86;100.00
21240;BME280;10778;48.962;9.018;2023-10-08T01:58:57;99875.31;;;10.78;100.00
21240;BME280;10778;48.962;9.018;2023-10-08T02:01:23;99874.97;;;10.71;100.00
21240;BME280;10778;48.962;9.018;2023-10-08T02:03:50;99877.13;;;10.77;100.00
21240;BME280;10778;48.962;9.018;2023-10-08T02:06:16;99877.97;;;10.66;100.00
21240;BME280;10778;48.962;9.018;2023-10-08T02:08:42;99873.03;;;10.62;100.00
21240;BME280;10778;48.962;9.018;2023-10-08T02:11:08;99867.88;;;10.60;100.00
21240;BME280;10778;48.962;9.018;2023-10-08T02:13:34;99869.34;;;10.64;100.00
21240;BME280;10778;48.962;9.018;2023-10-08T02:16:00;99876.38;;;10.52;100.00
21240;BME280;10778;48.962;9.018;2023-10-08T02:18:27;99883.34;;;10.53;100.00
21240;BME280;10778;48.962;9.018;2023-10-08T02:20:55;99877.31;;;10.40;100.00
21240;BME280;10778;48.962;9.018;2023-10-08T02:23:21;99885.78;;;10.32;100.00
21240;BME280;10778;48.962;9.018;2023-10-08T02:25:47;99885.16;;;10.29;100.00
21240;BME280;10778;48.962;9.018;2023-10-08T02:28:13;99888.75;;;10.28;100.00
21240;BME280;10778;48.962;9.018;2023-10-08T02:30:42;99891.88;;;10.33;100.00
21240;BME280;10778;48.962;9.018;2023-10-08T02:33:08;99881.44;;;10.20;100.00
21240;BME280;10778;48.962;9.018;2023-10-08T02:35:42;99885.88;;;10.19;100.00
21240;BME280;10778;48.962;9.018;2023-10-08T02:38:12;99877.31;;;10.40;100.00
21240;BME280;10778;48.962;9.018;2023-10-08T02:40:47;99880.50;;;10.21;100.00
21240;BME280;10778;48.962;9.018;2023-10-08T02:43:16;99876.44;;;10.17;100.00
21240;BME280;10778;48.962;9.018;2023-10-08T02:45:44;99878.91;;;10.18;100.00
21240;BME280;10778;48.962;9.018;2023-10-08T02:48:15;99876.63;;;10.02;100.00
21240;BME280;10778;48.962;9.018;2023-10-08T02:50:42;99875.91;;;10.00;100.00
21240;BME280;10778;48.962;9.018;2023-10-08T02:53:11;99875.81;;;10.02;100.00
21240;BME280;10778;48.962;9.018;2023-10-08T02:55:38;99870.88;;;9.97;100.00
21240;BME280;10778;48.962;9.018;2023-10-08T02:58:16;99870.28;;;9.93;100.00
21240;BME280;10778;48.962;9.018;2023-10-08T03:00:46;99866.06;;;9.91;100.00
21240;BME280;10778;48.962;9.018;2023-10-08T03:03:16;99864.28;;;9.91;100.00
21240;BME280;10778;48.962;9.018;2023-10-08T03:05:46;99873.38;;;9.87;100.00
21240;BME280;10778;48.962;9.018;2023-10-08T03:08:17;99872.66;;;9.85;100.00
21240;BME280;10778;48.962;9.018;2023-10-08T03:10:51;99870.13;;;9.84;100.00
21240;BME280;10778;48.962;9.018;2023-10-08T03:13:28;99868.16;;;9.74;100.00
21240;BME280;10778;48.962;9.018;2023-10-08T03:15:55;99862.69;;;9.77;100.00
21240;BME280;10778;48.962;9.018;2023-10-08T03:18:27;99868.09;;;9.87;100.00
21240;BME280;10778;48.962;9.018;2023-10-08T03:21:06;99875.72;;;9.79;100.00
21240;BME280;10778;48.962;9.018;2023-10-08T03:23:49;99877.34;;;9.93;100.00
21240;BME280;10778;48.962;9.018;2023-10-08T03:26:17;99880.69;;;9.95;100.00
21240;BME280;10778;48.962;9.018;2023-10-08T03:28:55;99883.41;;;9.93;100.00
21240;BME280;10778;48.962;9.018;2023-10-08T03:31:25;99886.38;;;9.89;100.00
21240;BME280;10778;48.962;9.018;2023-10-08T03:34:17;99885.41;;;9.90;100.00
21240;BME280;10778;48.962;9.018;2023-10-08T03:36:46;99884.22;;;9.82;100.00
21240;BME280;10778;48.962;9.018;2023-10-08T03:39:17;99885.66;;;9.87;100.00
21240;BME280;10778;48.962;9.018;2023-10-08T03:41:46;99891.53;;;9.90;100.00
21240;BME280;10778;48.962;9.018;2023-10-08T03:44:31;99893.94;;;9.93;100.00
21240;BME280;10778;48.962;9.018;2023-10-08T03:47:01;99901.00;;;9.93;100.00
21240;BME280;10778;48.962;9.018;2023-10-08T03:49:35;99888.97;;;9.77;100.00
21240;BME280;10778;48.962;9.018;2023-10-08T03:52:07;99892.91;;;9.72;100.00
21240;BME280;10778;48.962;9.018;2023-10-08T03:54:33;99887.97;;;9.67;100.00
21240;BME280;10778;48.962;9.018;2023-10-08T03:57:02;99892.50;;;9.65;100.00
21240;BME280;10778;48.962;9.018;2023-10-08T03:59:39;99888.91;;;9.66;100.00
21240;BME280;10778;48.962;9.018;2023-10-08T04:02:07;99886.53;;;9.63;100.00
21240;BME280;10778;48.962;9.018;2023-10-08T04:04:59;99880.75;;;9.58;100.00
21240;BME280;10778;48.962;9.018;2023-10-08T04:07:26;99878.75;;;9.61;100.00
21240;BME280;10778;48.962;9.018;2023-10-08T04:09:59;99877.69;;;9.64;100.00
21240;BME280;10778;48.962;9.018;2023-10-08T04:12:35;99875.28;;;9.61;100.00
21240;BME280;10778;48.962;9.018;2023-10-08T04:15:02;99875.50;;;9.58;100.00
21240;BME280;10778;48.962;9.018;2023-10-08T04:17:35;99876.25;;;9.60;100.00
21240;BME280;10778;48.962;9.018;2023-10-08T04:20:14;99874.56;;;9.59;100.00
21240;BME280;10778;48.962;9.018;2023-10-08T04:23:08;99874.06;;;9.53;100.00
21240;BME280;10778;48.962;9.018;2023-10-08T04:25:49;99876.56;;;9.55;100.00
21240;BME280;10778;48.962;9.018;2023-10-08T04:28:20;99877.63;;;9.52;100.00
21240;BME280;10778;48.962;9.018;2023-10-08T04:30:47;99871.09;;;9.58;100.00
21240;BME280;10778;48.962;9.018;2023-10-08T04:33:14;99875.84;;;9.53;100.00
21240;BME280;10778;48.962;9.018;2023-10-08T04:35:41;99881.31;;;9.50;100.00
21240;BME280;10778;48.962;9.018;2023-10-08T04:38:15;99889.00;;;9.53;100.00
21240;BME280;10778;48.962;9.018;2023-10-08T04:40:44;99895.06;;;9.53;100.00
21240;BME280;10778;48.962;9.018;2023-10-08T04:43:23;99887.16;;;9.42;100.00
21240;BME280;10778;48.962;9.018;2023-10-08T04:46:00;99891.03;;;9.36;100.00
21240;BME280;10778;48.962;9.018;2023-10-08T04:48:52;99888.13;;;9.28;100.00
21240;BME280;10778;48.962;9.018;2023-10-08T04:51:18;99881.31;;;9.25;100.00
21240;BME280;10778;48.962;9.018;2023-10-08T04:53:47;99883.31;;;9.22;100.00
21240;BME280;10778;48.962;9.018;2023-10-08T04:56:14;99880.78;;;9.20;100.00
21240;BME280;10778;48.962;9.018;2023-10-08T04:58:44;99885.22;;;9.20;100.00
21240;BME280;10778;48.962;9.018;2023-10-08T05:01:13;99892.69;;;9.13;100.00
21240;BME280;10778;48.962;9.018;2023-10-08T05:03:58;99891.97;;;9.11;100.00
21240;BME280;10778;48.962;9.018;2023-10-08T05:06:27;99895.63;;;9.08;100.00
21240;BME280;10778;48.962;9.018;2023-10-08T05:09:10;99895.72;;;9.07;100.00
21240;BME280;10778;48.962;9.018;2023-10-08T05:11:46;99900.25;;;9.05;100.00
21240;BME280;10778;48.962;9.018;2023-10-08T05:14:33;99898.47;;;9.05;100.00
21240;BME280;10778;48.962;9.018;2023-10-08T05:17:00;99893.44;;;9.02;100.00
21240;BME280;10778;48.962;9.018;2023-10-08T05:19:30;99899.13;;;8.96;100.00
21240;BME280;10778;48.962;9.018;2023-10-08T05:22:08;99896.50;;;8.96;100.00
21240;BME280;10778;48.962;9.018;2023-10-08T05:24:53;99888.22;;;8.89;100.00
21240;BME280;10778;48.962;9.018;2023-10-08T05:27:39;99893.06;;;8.82;100.00
21240;BME280;10778;48.962;9.018;2023-10-08T05:30:20;99896.63;;;8.81;100.00
21240;BME280;10778;48.962;9.018;2023-10-08T05:32:59;99899.69;;;8.75;100.00
21240;BME280;10778;48.962;9.018;2023-10-08T05:35:45;99905.22;;;8.71;100.00
21240;BME280;10778;48.962;9.018;2023-10-08T05:38:13;99910.38;;;8.72;100.00
21240;BME280;10778;48.962;9.018;2023-10-08T05:40:43;99919.94;;;8.73;100.00
21240;BME280;10778;48.962;9.018;2023-10-08T05:43:25;99911.13;;;8.61;100.00
21240;BME280;10778;48.962;9.018;2023-10-08T05:46:15;99911.66;;;8.66;100.00
21240;BME280;10778;48.962;9.018;2023-10-08T05:48:51;99909.75;;;8.68;100.00
21240;BME280;10778;48.962;9.018;2023-10-08T05:51:40;99907.44;;;8.77;100.00
21240;BME280;10778;48.962;9.018;2023-10-08T05:56:54;99915.53;;;8.87;100.00
21240;BME280;10778;48.962;9.018;2023-10-08T05:59:45;99918.66;;;8.92;100.00
21240;BME280;10778;48.962;9.018;2023-10-08T06:02:27;99911.81;;;8.89;100.00
21240;BME280;10778;48.962;9.018;2023-10-08T06:05:02;99914.03;;;8.95;100.00
21240;BME280;10778;48.962;9.018;2023-10-08T06:13:13;99907.28;;;9.17;100.00
21240;BME280;10778;48.962;9.018;2023-10-08T06:18:18;99907.91;;;9.21;100.00
21240;BME280;10778;48.962;9.018;2023-10-08T06:20:45;99901.56;;;9.23;100.00
21240;BME280;10778;48.962;9.018;2023-10-08T06:23:12;99904.72;;;9.29;100.00
21240;BME280;10778;48.962;9.018;2023-10-08T06:25:39;99908.34;;;9.39;100.00
21240;BME280;10778;48.962;9.018;2023-10-08T06:28:16;99912.41;;;9.56;100.00
21240;BME280;10778;48.962;9.018;2023-10-08T06:30:46;99911.22;;;9.60;100.00
21240;BME280;10778;48.962;9.018;2023-10-08T06:33:14;99904.34;;;9.71;100.00
21240;BME280;10778;48.962;9.018;2023-10-08T06:35:40;99900.38;;;10.01;100.00
21240;BME280;10778;48.962;9.018;2023-10-08T06:38:28;99902.34;;;10.91;100.00
21240;BME280;10778;48.962;9.018;2023-10-08T06:41:00;99911.44;;;10.64;99.12
21240;BME280;10778;48.962;9.018;2023-10-08T06:43:29;99910.59;;;10.87;100.00
21240;BME280;10778;48.962;9.018;2023-10-08T06:45:55;99916.75;;;11.87;95.37
21240;BME280;10778;48.962;9.018;2023-10-08T06:48:24;99916.00;;;13.32;85.22
21240;BME280;10778;48.962;9.018;2023-10-08T06:50:52;99908.59;;;14.06;80.38
21240;BME280;10778;48.962;9.018;2023-10-08T06:53:23;99911.13;;;14.75;77.70
21240;BME280;10778;48.962;9.018;2023-10-08T06:55:49;99912.06;;;15.76;72.35
21240;BME280;10778;48.962;9.018;2023-10-08T06:58:23;99914.25;;;14.98;72.17
21240;BME280;10778;48.962;9.018;2023-10-08T07:00:51;99924.06;;;13.81;76.54
21240;BME280;10778;48.962;9.018;2023-10-08T07:03:17;99928.75;;;13.07;82.79
21240;BME280;10778;48.962;9.018;2023-10-08T07:08:11;99925.00;;;14.87;77.33
21240;BME280;10778;48.962;9.018;2023-10-08T07:10:40;99928.97;;;16.56;70.44
21240;BME280;10778;48.962;9.018;2023-10-08T07:13:08;99923.25;;;17.46;64.73
21240;BME280;10778;48.962;9.018;2023-10-08T07:15:34;99920.63;;;17.96;62.06
21240;BME280;10778;48.962;9.018;2023-10-08T07:18:05;99936.78;;;15.76;69.39
21240;BME280;10778;48.962;9.018;2023-10-08T07:20:37;99954.63;;;14.53;75.95
21240;BME280;10778;48.962;9.018;2023-10-08T07:23:09;99945.50;;;14.07;78.90
21240;BME280;10778;48.962;9.018;2023-10-08T07:25:59;99932.53;;;13.65;79.88
21240;BME280;10778;48.962;9.018;2023-10-08T07:28:43;99919.44;;;13.13;82.44
21240;BME280;10778;48.962;9.018;2023-10-08T07:31:17;99932.59;;;12.62;87.06
21240;BME280;10778;48.962;9.018;2023-10-08T07:33:46;99934.38;;;12.40;89.83
21240;BME280;10778;48.962;9.018;2023-10-08T07:36:12;99933.03;;;12.46;91.44
21240;BME280;10778;48.962;9.018;2023-10-08T07:38:44;99931.47;;;12.64;89.04
21240;BME280;10778;48.962;9.018;2023-10-08T07:41:11;99928.63;;;12.77;87.71
21240;BME280;10778;48.962;9.018;2023-10-08T07:43:46;99921.50;;;12.99;86.59
21240;BME280;10778;48.962;9.018;2023-10-08T07:46:22;99930.56;;;13.16;87.06
21240;BME280;10778;48.962;9.018;2023-10-08T07:48:52;99930.03;;;13.13;86.58
21240;BME280;10778;48.962;9.018;2023-10-08T07:51:19;99932.25;;;13.17;87.61
21240;BME280;10778;48.962;9.018;2023-10-08T07:53:51;99932.91;;;13.50;88.28
21240;BME280;10778;48.962;9.018;2023-10-08T07:56:22;99932.09;;;13.50;87.62
21240;BME280;10778;48.962;9.018;2023-10-08T07:58:53;99939.06;;;13.80;85.70
21240;BME280;10778;48.962;9.018;2023-10-08T08:01:23;99936.47;;;14.68;84.05
21240;BME280;10778;48.962;9.018;2023-10-08T08:03:51;99956.56;;;15.82;78.00
21240;BME280;10778;48.962;9.018;2023-10-08T08:06:17;99971.59;;;16.28;77.85
21240;BME280;10778;48.962;9.018;2023-10-08T08:08:43;99965.34;;;17.68;71.57
21240;BME280;10778;48.962;9.018;2023-10-08T08:11:10;99974.22;;;17.25;72.68
21240;BME280;10778;48.962;9.018;2023-10-08T08:13:44;99967.91;;;18.69;66.84
21240;BME280;10778;48.962;9.018;2023-10-08T08:16:11;99949.72;;;20.30;61.07
21240;BME280;10778;48.962;9.018;2023-10-08T08:18:45;99960.09;;;20.49;59.20
21240;BME280;10778;48.962;9.018;2023-10-08T08:21:12;99958.88;;;21.56;55.81
21240;BME280;10778;48.962;9.018;2023-10-08T08:23:43;99965.97;;;20.97;56.61
21240;BME280;10778;48.962;9.018;2023-10-08T08:26:19;99968.28;;;21.00;57.43
21240;BME280;10778;48.962;9.018;2023-10-08T08:28:56;99970.50;;;21.49;55.63
21240;BME280;10778;48.962;9.018;2023-10-08T08:31:24;99972.38;;;22.28;54.46
21240;BME280;10778;48.962;9.018;2023-10-08T08:33:51;99968.13;;;22.98;51.61
21240;BME280;10778;48.962;9.018;2023-10-08T08:36:30;99965.97;;;23.97;49.94
21240;BME280;10778;48.962;9.018;2023-10-08T08:38:57;99961.47;;;24.25;49.60
21240;BME280;10778;48.962;9.018;2023-10-08T08:41:24;99957.94;;;24.04;50.23
21240;BME280;10778;48.962;9.018;2023-10-08T08:43:52;99969.41;;;23.57;51.29
21240;BME280;10778;48.962;9.018;2023-10-08T08:46:32;99973.84;;;22.88;53.42
21240;BME280;10778;48.962;9.018;2023-10-08T08:49:04;99958.63;;;23.02;52.99
21240;BME280;10778;48.962;9.018;2023-10-08T08:51:37;99959.53;;;23.78;50.39
21240;BME280;10778;48.962;9.018;2023-10-08T08:54:05;99960.59;;;22.86;52.84
21240;BME280;10778;48.962;9.018;2023-10-08T08:56:40;99961.72;;;22.99;53.95
21240;BME280;10778;48.962;9.018;2023-10-08T08:59:09;99963.22;;;23.15;52.54
21240;BME280;10778;48.962;9.018;2023-10-08T09:01:39;99950.72;;;24.18;50.85
21240;BME280;10778;48.962;9.018;2023-10-08T09:04:06;99949.47;;;24.34;51.03
21240;BME280;10778;48.962;9.018;2023-10-08T09:06:36;99939.47;;;23.12;51.77
21240;BME280;10778;48.962;9.018;2023-10-08T09:09:05;99939.69;;;22.68;53.16
21240;BME280;10778;48.962;9.018;2023-10-08T09:12:00;99945.31;;;22.01;53.99
21240;BME280;10778;48.962;9.018;2023-10-08T09:14:27;99933.72;;;21.94;53.56
21240;BME280;10778;48.962;9.018;2023-10-08T09:17:04;99942.88;;;21.63;54.83
21240;BME280;10778;48.962;9.018;2023-10-08T09:23:05;99941.75;;;22.16;52.74
21240;BME280;10778;48.962;9.018;2023-10-08T09:25:36;99961.00;;;21.46;54.88
21240;BME280;10778;48.962;9.018;2023-10-08T09:28:02;99956.06;;;21.65;54.51
21240;BME280;10778;48.962;9.018;2023-10-08T09:30:36;99955.31;;;21.34;54.25
21240;BME280;10778;48.962;9.018;2023-10-08T09:33:07;99962.94;;;21.00;54.17
21240;BME280;10778;48.962;9.018;2023-10-08T09:35:34;99955.41;;;20.66;55.95
21240;BME280;10778;48.962;9.018;2023-10-08T09:38:04;99952.84;;;20.57;55.78
21240;BME280;10778;48.962;9.018;2023-10-08T09:40:31;99955.97;;;20.76;56.80
21240;BME280;10778;48.962;9.018;2023-10-08T09:42:58;99952.28;;;20.77;55.94
21240;BME280;10778;48.962;9.018;2023-10-08T09:45:25;99953.47;;;20.74;55.91
21240;BME280;10778;48.962;9.018;2023-10-08T09:47:54;99955.13;;;20.75;56.03
21240;BME280;10778;48.962;9.018;2023-10-08T09:50:33;99947.06;;;20.84;55.06
21240;BME280;10778;48.962;9.018;2023-10-08T09:53:13;99955.34;;;20.89;56.52
21240;BME280;10778;48.962;9.018;2023-10-08T09:55:45;99956.66;;;20.93;56.69
21240;BME280;10778;48.962;9.018;2023-10-08T09:58:15;99964.22;;;21.05;57.27
21240;BME280;10778;48.962;9.018;2023-10-08T10:00:43;99970.84;;;21.09;57.93
21240;BME280;10778;48.962;9.018;2023-10-08T10:03:11;99964.31;;;21.11;56.95
21240;BME280;10778;48.962;9.018;2023-10-08T10:05:38;99967.44;;;21.00;56.29
21240;BME280;10778;48.962;9.018;2023-10-08T10:08:06;99974.53;;;21.08;56.17
21240;BME280;10778;48.962;9.018;2023-10-08T10:10:38;99973.72;;;20.92;56.89
21240;BME280;10778;48.962;9.018;2023-10-08T10:13:09;99976.94;;;21.02;57.54
21240;BME280;10778;48.962;9.018;2023-10-08T10:15:39;99979.75;;;20.71;58.54
21240;BME280;10778;48.962;9.018;2023-10-08T10:21:26;99975.56;;;20.38;59.17
21240;BME280;10778;48.962;9.018;2023-10-08T10:23:43;99984.59;;;20.52;59.42
21240;BME280;10778;48.962;9.018;2023-10-08T10:31:33;99967.72;;;21.20;56.16
21240;BME280;10778;48.962;9.018;2023-10-08T10:34:09;99957.31;;;21.84;54.95
21240;BME280;10778;48.962;9.018;2023-10-08T10:36:36;99965.84;;;21.72;55.34
21240;BME280;10778;48.962;9.018;2023-10-08T10:39:03;99962.03;;;21.82;54.87
21240;BME280;10778;48.962;9.018;2023-10-08T10:42:04;99962.59;;;22.21;53.99
21240;BME280;10778;48.962;9.018;2023-10-08T10:44:33;99957.75;;;22.59;53.26
21240;BME280;10778;48.962;9.018;2023-10-08T10:47:03;99955.25;;;22.29;54.81
21240;BME280;10778;48.962;9.018;2023-10-08T10:49:48;99955.19;;;22.23;54.16
21240;BME280;10778;48.962;9.018;2023-10-08T10:52:22;99953.44;;;21.86;53.48
21240;BME280;10778;48.962;9.018;2023-10-08T10:55:04;99952.13;;;22.83;53.05
21240;BME280;10778;48.962;9.018;2023-10-08T10:57:40;99948.97;;;23.08;50.34
21240;BME280;10778;48.962;9.018;2023-10-08T11:00:08;99950.06;;;22.85;50.64
21240;BME280;10778;48.962;9.018;2023-10-08T11:02:52;99950.00;;;22.71;50.23
21240;BME280;10778;48.962;9.018;2023-10-08T11:05:29;99945.34;;;22.87;50.83
21240;BME280;10778;48.962;9.018;2023-10-08T11:07:58;99934.50;;;23.09;50.37
21240;BME280;10778;48.962;9.018;2023-10-08T11:10:32;99945.34;;;22.87;51.43
21240;BME280;10778;48.962;9.018;2023-10-08T11:12:58;99935.25;;;22.89;51.53
21240;BME280;10778;48.962;9.018;2023-10-08T11:15:28;99932.75;;;22.87;50.98
21240;BME280;10778;48.962;9.018;2023-10-08T11:18:13;99925.75;;;22.93;48.71
21240;BME280;10778;48.962;9.018;2023-10-08T11:20:44;99913.56;;;22.91;48.63
21240;BME280;10778;48.962;9.018;2023-10-08T11:26:01;99918.31;;;23.37;48.52
21240;BME280;10778;48.962;9.018;2023-10-08T11:28:35;99918.50;;;23.36;47.95
21240;BME280;10778;48.962;9.018;2023-10-08T11:31:03;99916.09;;;23.48;48.68
21240;BME280;10778;48.962;9.018;2023-10-08T11:33:41;99908.66;;;23.50;46.70
21240;BME280;10778;48.962;9.018;2023-10-08T11:36:08;99909.47;;;23.50;46.93
21240;BME280;10778;48.962;9.018;2023-10-08T11:38:45;99909.50;;;23.64;47.15
21240;BME280;10778;48.962;9.018;2023-10-08T11:41:17;99912.56;;;23.47;47.05
21240;BME280;10778;48.962;9.018;2023-10-08T11:43:54;99903.31;;;23.63;46.43
21240;BME280;10778;48.962;9.018;2023-10-08T11:46:27;99902.28;;;23.91;45.83
21240;BME280;10778;48.962;9.018;2023-10-08T11:49:01;99898.97;;;23.96;46.04
21240;BME280;10778;48.962;9.018;2023-10-08T11:51:35;99889.47;;;23.93;45.92
21240;BME280;10778;48.962;9.018;2023-10-08T11:54:01;99888.66;;;23.93;45.28
21240;BME280;10778;48.962;9.018;2023-10-08T11:56:28;99888.66;;;24.33;46.51
21240;BME280;10778;48.962;9.018;2023-10-08T11:58:55;99887.44;;;24.09;46.21
21240;BME280;10778;48.962;9.018;2023-10-08T12:01:24;99878.94;;;24.12;45.97
21240;BME280;10778;48.962;9.018;2023-10-08T12:03:50;99877.28;;;24.24;46.18
21240;BME280;10778;48.962;9.018;2023-10-08T12:06:17;99874.22;;;24.14;45.72
21240;BME280;10778;48.962;9.018;2023-10-08T12:08:47;99873.97;;;24.22;45.73
21240;BME280;10778;48.962;9.018;2023-10-08T12:11:19;99876.41;;;24.44;45.67
21240;BME280;10778;48.962;9.018;2023-10-08T12:13:48;99869.16;;;24.51;45.27
21240;BME280;10778;48.962;9.018;2023-10-08T12:16:16;99866.25;;;24.46;46.08
21240;BME280;10778;48.962;9.018;2023-10-08T12:18:49;99859.78;;;24.67;45.71
21240;BME280;10778;48.962;9.018;2023-10-08T12:21:20;99855.03;;;24.69;45.30
21240;BME280;10778;48.962;9.018;2023-10-08T12:23:47;99857.25;;;24.86;44.92
21240;BME280;10778;48.962;9.018;2023-10-08T12:26:13;99863.00;;;25.03;45.39
21240;BME280;10778;48.962;9.018;2023-10-08T12:28:46;99852.59;;;25.07;44.50
21240;BME280;10778;48.962;9.018;2023-10-08T12:31:21;99853.91;;;24.97;43.12
21240;BME280;10778;48.962;9.018;2023-10-08T12:33:51;99856.91;;;25.14;43.51
21240;BME280;10778;48.962;9.018;2023-10-08T12:36:23;99853.03;;;25.04;44.07
21240;BME280;10778;48.962;9.018;2023-10-08T12:38:50;99855.59;;;25.31;44.56
21240;BME280;10778;48.962;9.018;2023-10-08T12:41:26;99851.69;;;25.26;43.45
21240;BME280;10778;48.962;9.018;2023-10-08T12:43:57;99854.03;;;25.16;42.77
21240;BME280;10778;48.962;9.018;2023-10-08T12:46:24;99848.47;;;25.43;42.82
21240;BME280;10778;48.962;9.018;2023-10-08T12:48:51;99851.47;;;25.28;43.09
21240;BME280;10778;48.962;9.018;2023-10-08T12:51:21;99853.88;;;25.43;43.02
21240;BME280;10778;48.962;9.018;2023-10-08T12:53:51;99857.81;;;25.40;43.61
21240;BME280;10778;48.962;9.018;2023-10-08T12:56:38;99850.94;;;25.51;43.19
21240;BME280;10778;48.962;9.018;2023-10-08T12:59:11;99854.13;;;25.67;42.05
21240;BME280;10778;48.962;9.018;2023-10-08T13:01:47;99857.44;;;25.30;43.13
21240;BME280;10778;48.962;9.018;2023-10-08T13:04:18;99855.16;;;25.34;43.03
21240;BME280;10778;48.962;9.018;2023-10-08T13:06:55;99849.59;;;25.28;42.54
21240;BME280;10778;48.962;9.018;2023-10-08T13:09:26;99856.03;;;25.27;42.59
21240;BME280;10778;48.962;9.018;2023-10-08T13:11:53;99853.06;;;25.36;42.90
21240;BME280;10778;48.962;9.018;2023-10-08T13:14:19;99855.91;;;25.48;42.96
21240;BME280;10778;48.962;9.018;2023-10-08T13:16:48;99854.06;;;25.48;42.84
21240;BME280;10778;48.962;9.018;2023-10-08T13:19:20;99861.03;;;25.24;42.72
21240;BME280;10778;48.962;9.018;2023-10-08T13:21:46;99855.03;;;25.22;42.44
21240;BME280;10778;48.962;9.018;2023-10-08T13:24:13;99852.44;;;25.02;42.15
21240;BME280;10778;48.962;9.018;2023-10-08T13:26:39;99852.66;;;25.00;41.97
21240;BME280;10778;48.962;9.018;2023-10-08T13:29:07;99856.38;;;24.99;42.43
21240;BME280;10778;48.962;9.018;2023-10-08T13:31:35;99854.13;;;25.35;42.94
21240;BME280;10778;48.962;9.018;2023-10-08T13:34:04;99850.13;;;25.51;42.10
21240;BME280;10778;48.962;9.018;2023-10-08T13:36:36;99844.38;;;25.34;41.90
21240;BME280;10778;48.962;9.018;2023-10-08T13:39:05;99843.50;;;25.40;42.28
21240;BME280;10778;48.962;9.018;2023-10-08T13:41:36;99849.28;;;25.43;42.41
21240;BME280;10778;48.962;9.018;2023-10-08T13:44:26;99842.25;;;25.75;42.28
21240;BME280;10778;48.962;9.018;2023-10-08T13:46:56;99839.75;;;25.73;42.89
21240;BME280;10778;48.962;9.018;2023-10-08T13:49:24;99843.47;;;25.47;43.99
21240;BME280;10778;48.962;9.018;2023-10-08T13:51:52;99850.53;;;25.41;43.74
21240;BME280;10778;48.962;9.018;2023-10-08T13:54:22;99845.34;;;25.14;43.94
21240;BME280;10778;48.962;9.018;2023-10-08T13:56:51;99853.09;;;24.90;44.34